^^
Grace C. Lehan Memorial Weather Station Historical Data
Daily Summary for January 17, 2021 Units:  English    Metric   Both
Daily Weekly Monthly Yearly
  High: Low: Average:
Temperature: 60.9 °F 42.4 °F 53.1 °F
Dew Point: 47.1 °F 20.4 °F 32.3 °F
Humidity: 80% 24% 49%
Wind Speed: 7.7mph 0mph 2.1mph
Wind Gust: 19mph - -
Wind- - West
Pressure: 30.17 in 29.76 in -
Precipitation: 0.00 in    
 
 
Tabular Data for January 17, 2021
Time Temperature Dew Point Pressure Wind Wind Speed Wind Gust Humidity Rainfall Rate (Hourly) solar
00:04 53 °F 46.3 °F 29.80 in South 0.1 mph 3 mph 78% 0.00 in 0 W/m2
00:09 52.8 °F 46.5 °F 29.80 in Calm   2 mph 79% 0.00 in 0 W/m2
00:14 52.7 °F 46.3 °F 29.80 in Calm   2 mph 79% 0.00 in 0 W/m2
00:19 52.6 °F 46.5 °F 29.80 in South 0.1 mph 2 mph 79.6% 0.00 in 0 W/m2
00:24 52.5 °F 46.5 °F 29.79 in Calm   2 mph 80% 0.00 in 0 W/m2
00:29 52.6 °F 46.6 °F 29.79 in Calm   2 mph 80% 0.00 in 0 W/m2
00:34 52.7 °F 46.7 °F 29.79 in Calm   2 mph 80% 0.00 in 0 W/m2
00:39 52.7 °F 46.7 °F 29.79 in Calm     80% 0.00 in 0 W/m2
00:44 52.7 °F 46.7 °F 29.79 in Calm     80% 0.00 in 0 W/m2
00:49 52.6 °F 46.6 °F 29.79 in Calm     80% 0.00 in 0 W/m2
00:54 52.5 °F 46.5 °F 29.78 in Calm     80% 0.00 in 0 W/m2
00:59 52.4 °F 46.5 °F 29.78 in Calm     80% 0.00 in 0 W/m2
01:04 52.4 °F 46.3 °F 29.78 in Calm     79.6% 0.00 in 0 W/m2
01:09 52.4 °F 46.1 °F 29.78 in South 0.1 mph 2 mph 79% 0.00 in 0 W/m2
01:14 52.4 °F 46.1 °F 29.78 in South 0.5 mph 2 mph 79% 0.00 in 0 W/m2
01:19 52.4 °F 46.1 °F 29.78 in South 0.8 mph 4 mph 79% 0.00 in 0 W/m2
01:24 52.4 °F 46 °F 29.77 in South 1.1 mph 4 mph 78.9% 0.00 in 0 W/m2
01:29 52.6 °F 45.9 °F 29.77 in South 1.6 mph 5 mph 78% 0.00 in 0 W/m2
01:34 52.9 °F 46 °F 29.77 in South 1 mph 5 mph 77.4% 0.00 in 0 W/m2
01:39 53.2 °F 46.2 °F 29.77 in SSW 1.7 mph 5 mph 76.8% 0.00 in 0 W/m2
01:44 53.7 °F 46.3 °F 29.76 in SSW 1.7 mph 6 mph 76% 0.00 in 0 W/m2
01:49 54.1 °F 46.3 °F 29.76 in SSW 2.3 mph 6 mph 75% 0.00 in 0 W/m2
01:54 54.5 °F 46.4 °F 29.77 in SSW 1.5 mph 6 mph 74.2% 0.00 in 0 W/m2
01:59 54.9 °F 46.5 °F 29.77 in SSW 1.1 mph 6 mph 73.3% 0.00 in 0 W/m2
02:04 55.1 °F 46.7 °F 29.77 in SSW 0.8 mph 6 mph 73% 0.00 in 0 W/m2
02:09 55.3 °F 46.5 °F 29.78 in SSW 0.7 mph 4 mph 72.1% 0.00 in 0 W/m2
02:14 55.4 °F 46.5 °F 29.77 in SSW 1.4 mph 5 mph 72% 0.00 in 0 W/m2
02:19 55.4 °F 46.6 °F 29.77 in SSW 0.8 mph 6 mph 72% 0.00 in 0 W/m2
02:24 55.4 °F 46.5 °F 29.78 in SSW 0.3 mph 6 mph 72% 0.00 in 0 W/m2
02:29 55.3 °F 46.4 °F 29.78 in Calm   6 mph 72% 0.00 in 0 W/m2
02:34 55.1 °F 46.3 °F 29.78 in Calm   6 mph 72% 0.00 in 0 W/m2
02:39 55 °F 46.2 °F 29.78 in Calm     72.1% 0.00 in 0 W/m2
02:44 54.9 °F 46.2 °F 29.78 in Calm     72.5% 0.00 in 0 W/m2
02:49 54.8 °F 46.3 °F 29.78 in Calm   1 mph 73% 0.00 in 0 W/m2
02:54 54.6 °F 46.2 °F 29.78 in Calm   1 mph 73% 0.00 in 0 W/m2
02:59 54.5 °F 46.2 °F 29.78 in SSW 0.1 mph 2 mph 73.3% 0.00 in 0 W/m2
03:04 54.4 °F 46.3 °F 29.78 in SSW 0.4 mph 3 mph 74% 0.00 in 0 W/m2
03:09 54.3 °F 46.2 °F 29.78 in SSW 1.5 mph 4 mph 74% 0.00 in 0 W/m2
03:14 54.2 °F 46.1 °F 29.78 in SSW 0.7 mph 4 mph 74% 0.00 in 0 W/m2
03:19 54.1 °F 46.3 °F 29.77 in SSW 1 mph 4 mph 74.8% 0.00 in 0 W/m2
03:24 54 °F 46.3 °F 29.78 in SSW 1.5 mph 4 mph 75% 0.00 in 0 W/m2
03:29 54 °F 46.2 °F 29.78 in SSW 1.8 mph 6 mph 75% 0.00 in 0 W/m2
03:34 53.9 °F 46.2 °F 29.78 in SSW 2 mph 6 mph 75% 0.00 in 0 W/m2
03:39 53.9 °F 46.4 °F 29.77 in SSW 2.7 mph 6 mph 75.7% 0.00 in 0 W/m2
03:44 53.8 °F 46.4 °F 29.77 in SSW 1.8 mph 6 mph 76% 0.00 in 0 W/m2
03:49 53.7 °F 46.3 °F 29.78 in SSW 1.2 mph 6 mph 76% 0.00 in 0 W/m2
03:54 53.6 °F 46.3 °F 29.78 in SSW 0.6 mph 6 mph 76% 0.00 in 0 W/m2
03:59 53.5 °F 46.3 °F 29.78 in SSW 0.9 mph 6 mph 76.4% 0.00 in 0 W/m2
04:00 53.5 °F 46.5 °F 29.78 in Calm   6 mph 77% 0.00 in 0 W/m2
04:09 53.4 °F 46.4 °F 29.78 in SSW 1.9 mph 5 mph 77% 0.00 in 0 W/m2
04:14 53.4 °F 46.4 °F 29.78 in SSW 3.3 mph 6 mph 77% 0.00 in 0 W/m2
04:19 53.4 °F 46.4 °F 29.78 in SSW 2.9 mph 6 mph 77% 0.00 in 0 W/m2
04:24 53.5 °F 46.5 °F 29.78 in SSW 3.7 mph 7 mph 77% 0.00 in 0 W/m2
04:29 53.5 °F 46.5 °F 29.78 in SW 3.4 mph 7 mph 77% 0.00 in 0 W/m2
04:34 53.5 °F 46.6 °F 29.78 in SW 3.4 mph 7 mph 77.3% 0.00 in 0 W/m2
04:39 53.5 °F 46.8 °F 29.78 in SW 1.8 mph 7 mph 78% 0.00 in 0 W/m2
04:44 53.5 °F 46.8 °F 29.78 in SW 3.6 mph 9 mph 78% 0.00 in 0 W/m2
04:49 53.6 °F 46.8 °F 29.78 in SW 2.4 mph 9 mph 77.8% 0.00 in 0 W/m2
04:54 53.5 °F 46.7 °F 29.79 in SW 1.5 mph 9 mph 77.5% 0.00 in 0 W/m2
04:59 53.5 °F 46.8 °F 29.80 in SW 0.7 mph 9 mph 78% 0.00 in 0 W/m2
05:04 53.4 °F 46.8 °F 29.80 in SW 1.7 mph 9 mph 78% 0.00 in 0 W/m2
05:09 53.5 °F 46.8 °F 29.80 in SW 1.9 mph 10 mph 78% 0.00 in 0 W/m2
05:14 53.7 °F 47 °F 29.80 in SW 2 mph 10 mph 78% 0.00 in 0 W/m2
05:19 53.8 °F 47.1 °F 29.82 in WSW 1.9 mph 10 mph 77.7% 0.00 in 0 W/m2
05:24 54 °F 46.9 °F 29.82 in WSW 0.9 mph 10 mph 77% 0.00 in 0 W/m2
05:29 54.1 °F 47 °F 29.83 in WSW 0.4 mph 10 mph 77% 0.00 in 0 W/m2
05:34 54.1 °F 47.1 °F 29.83 in WSW 0.1 mph 10 mph 77% 0.00 in 0 W/m2
05:39 54.1 °F 47 °F 29.84 in Calm   4 mph 77% 0.00 in 0 W/m2
05:44 54 °F 46.9 °F 29.85 in WSW 0.2 mph 4 mph 76.7% 0.00 in 0 W/m2
05:49 54 °F 46.9 °F 29.85 in West 1 mph 6 mph 76.8% 0.00 in 0 W/m2
05:54 54.1 °F 46.7 °F 29.86 in West 1.7 mph 7 mph 76% 0.00 in 0 W/m2
05:59 54.2 °F 46.6 °F 29.87 in WNW 2.2 mph 7 mph 75.3% 0.00 in 0 W/m2
06:04 54.5 °F 46.2 °F 29.87 in NW 6.4 mph 18 mph 73.6% 0.00 in 0 W/m2
06:09 54.9 °F 44.2 °F 29.87 in NW 7.6 mph 19 mph 67.1% 0.00 in 0 W/m2
06:14 55.4 °F 43.4 °F 29.88 in WNW 6.4 mph 19 mph 63.8% 0.00 in 0 W/m2
06:19 55.7 °F 43.1 °F 29.89 in WNW 3.5 mph 19 mph 62.5% 0.00 in 0 W/m2
06:24 55.7 °F 42.6 °F 29.89 in WNW 4.8 mph 19 mph 61.5% 0.00 in 0 W/m2
06:29 55.5 °F 41.9 °F 29.89 in WNW 4.2 mph 19 mph 60% 0.00 in 0 W/m2
06:34 55.4 °F 41.1 °F 29.90 in NW 3.9 mph 19 mph 58.5% 0.00 in 0 W/m2
06:39 55.2 °F 40.5 °F 29.90 in WNW 5.7 mph 13 mph 57.4% 0.00 in 0 W/m2
06:44 55.1 °F 39.8 °F 29.91 in WNW 2.6 mph 13 mph 56.3% 0.00 in 0 W/m2
06:49 54.9 °F 39.5 °F 29.91 in NW 1.9 mph 13 mph 56% 0.00 in 0 W/m2
06:54 54.7 °F 39.3 °F 29.91 in NW 1.7 mph 13 mph 56% 0.00 in 0 W/m2
06:59 54.5 °F 39.1 °F 29.91 in NW 0.8 mph 13 mph 56% 0.00 in 0 W/m2
07:04 54.2 °F 38.9 °F 29.92 in NW 1.2 mph 13 mph 56% 0.00 in 0 W/m2
07:09 54 °F 38.7 °F 29.92 in NW 0.2 mph 4 mph 56% 0.00 in 0 W/m2
07:14 53.8 °F 38.5 °F 29.93 in Calm   4 mph 56% 0.00 in 5 W/m2
07:19 53.6 °F 38.3 °F 29.93 in NW 0.2 mph 4 mph 56% 0.00 in 5 W/m2
07:24 53.3 °F 38 °F 29.94 in NW 0.6 mph 4 mph 56% 0.00 in 9 W/m2
07:29 53.1 °F 37.6 °F 29.94 in NW 2.8 mph 9 mph 55.5% 0.00 in 12 W/m2
07:34 53 °F 36.7 °F 29.94 in NW 4.1 mph 9 mph 53.7% 0.00 in 16 W/m2
07:39 53 °F 36.2 °F 29.94 in WNW 5.7 mph 12 mph 52.7% 0.00 in 30 W/m2
07:44 53.1 °F 35.6 °F 29.94 in WNW 3.1 mph 12 mph 51.2% 0.00 in 46 W/m2
07:49 53.2 °F 34.8 °F 29.95 in WNW 3.6 mph 12 mph 49.4% 0.00 in 56 W/m2
07:54 53.6 °F 34 °F 29.95 in WNW 3.4 mph 12 mph 47.3% 0.00 in 56 W/m2
07:59 53.9 °F 34.2 °F 29.95 in WNW 2.7 mph 12 mph 47.1% 0.00 in 74 W/m2
08:00 54 °F 33.2 °F 29.95 in NW 1.5 mph 12 mph 45% 0.00 in 74 W/m2
08:09 54.4 °F 32.8 °F 29.95 in NW 2.2 mph 9 mph 43.7% 0.00 in 107 W/m2
08:14 54.7 °F 32.4 °F 29.95 in WNW 2 mph 9 mph 42.6% 0.00 in 121 W/m2
08:19 55 °F 32 °F 29.95 in WNW 2.7 mph 12 mph 41.4% 0.00 in 148 W/m2
08:24 55.5 °F 32.2 °F 29.95 in WNW 1.2 mph 12 mph 41% 0.00 in 163 W/m2
08:29 56 °F 32.5 °F 29.96 in WNW 1.4 mph 12 mph 40.7% 0.00 in 148 W/m2
08:34 56.6 °F 32.5 °F 29.96 in West 0.3 mph 12 mph 39.9% 0.00 in 151 W/m2
08:39 57.2 °F 32.6 °F 29.97 in West 0.2 mph 4 mph 39.2% 0.00 in 181 W/m2
08:44 57.7 °F 32.7 °F 29.97 in WNW 1.2 mph 10 mph 38.7% 0.00 in 181 W/m2
08:49 57.8 °F 31.5 °F 29.98 in WNW 3.2 mph 10 mph 36.7% 0.00 in 176 W/m2
08:54 57.5 °F 30.2 °F 29.98 in WNW 3.8 mph 11 mph 35.2% 0.00 in 199 W/m2
08:59 57.2 °F 28.5 °F 29.97 in WNW 6.5 mph 15 mph 33.2% 0.00 in 211 W/m2
09:04 56.9 °F 27.9 °F 29.98 in West 2.7 mph 15 mph 32.7% 0.00 in 144 W/m2
09:09 56.9 °F 27.7 °F 29.98 in West 3.1 mph 10 mph 32.5% 0.00 in 146 W/m2
09:14 56.8 °F 27.6 °F 29.99 in WNW 1.7 mph 10 mph 32.5% 0.00 in 193 W/m2
09:19 56.8 °F 26.7 °F 29.98 in WNW 5.1 mph 14 mph 31.3% 0.00 in 135 W/m2
09:24 56.7 °F 26.4 °F 29.98 in West 3.6 mph 14 mph 31% 0.00 in 163 W/m2
09:29 56.6 °F 26.2 °F 29.98 in WNW 5 mph 14 mph 30.8% 0.00 in 148 W/m2
09:34 56.5 °F 25.6 °F 29.99 in WNW 2.9 mph 14 mph 30.2% 0.00 in 146 W/m2
09:39 56.4 °F 25.9 °F 29.99 in WNW 2.8 mph 10 mph 30.7% 0.00 in 183 W/m2
09:44 56.4 °F 25.9 °F 29.99 in West 2.9 mph 12 mph 30.6% 0.00 in 148 W/m2
09:49 56.4 °F 25.5 °F 29.99 in West 4.4 mph 12 mph 30.2% 0.00 in 132 W/m2
09:54 56.4 °F 25.5 °F 29.99 in West 3.2 mph 12 mph 30.1% 0.00 in 134 W/m2
09:59 56.4 °F 25.5 °F 29.99 in WNW 5.4 mph 14 mph 30.2% 0.00 in 197 W/m2
10:04 56.5 °F 25.3 °F 29.99 in WNW 4.8 mph 14 mph 29.8% 0.00 in 197 W/m2
10:09 56.8 °F 26.1 °F 29.99 in West 1.5 mph 13 mph 30.5% 0.00 in 269 W/m2
10:14 57.3 °F 26.1 °F 29.99 in WNW 2.4 mph 13 mph 30% 0.00 in 330 W/m2
10:19 58 °F 26.8 °F 29.99 in WNW 4.1 mph 13 mph 30.1% 0.00 in 406 W/m2
10:24 58.7 °F 26.4 °F 29.99 in WNW 2.9 mph 13 mph 28.8% 0.00 in 431 W/m2
10:29 59.3 °F 26.9 °F 29.98 in WNW 4.5 mph 13 mph 28.8% 0.00 in 438 W/m2
10:34 59.7 °F 26.9 °F 29.98 in WNW 4.8 mph 13 mph 28.3% 0.00 in 443 W/m2
10:39 59.9 °F 26 °F 29.98 in WNW 4.3 mph 12 mph 27.1% 0.00 in 441 W/m2
10:44 60 °F 26.1 °F 29.98 in WNW 3.6 mph 12 mph 27.1% 0.00 in 410 W/m2
10:49 60 °F 25.9 °F 29.98 in WNW 5.2 mph 14 mph 27% 0.00 in 276 W/m2
10:54 59.9 °F 25.7 °F 29.98 in WNW 5.9 mph 15 mph 26.8% 0.00 in 104 W/m2
10:59 59.8 °F 25.6 °F 29.98 in West 5.2 mph 15 mph 26.8% 0.00 in 114 W/m2
11:04 59.6 °F 25 °F 29.98 in WNW 5.4 mph 15 mph 26.4% 0.00 in 169 W/m2
11:09 59.4 °F 25.3 °F 29.97 in WNW 4.8 mph 16 mph 26.8% 0.00 in 79 W/m2
11:14 59.3 °F 25.6 °F 29.97 in WNW 6.5 mph 16 mph 27.3% 0.00 in 86 W/m2
11:19 59.1 °F 25.2 °F 29.97 in NW 5 mph 16 mph 26.9% 0.00 in 90 W/m2
11:24 59.1 °F 25.9 °F 29.97 in NW 2.5 mph 16 mph 27.9% 0.00 in 83 W/m2
11:29 59.1 °F 25.8 °F 29.97 in West 2 mph 16 mph 27.7% 0.00 in 200 W/m2
11:34 59.3 °F 26.1 °F 29.97 in WNW 3.8 mph 16 mph 27.9% 0.00 in 241 W/m2
11:39 59.4 °F 26 °F 29.96 in WNW 5.1 mph 13 mph 27.6% 0.00 in 294 W/m2
11:44 59.3 °F 26.2 °F 29.97 in WNW 7.6 mph 13 mph 28% 0.00 in 214 W/m2
11:49 59.2 °F 25.9 °F 29.97 in WNW 5.3 mph 14 mph 27.7% 0.00 in 114 W/m2
11:54 59.1 °F 26.6 °F 29.97 in West 4.1 mph 14 mph 28.6% 0.00 in 100 W/m2
11:59 59.4 °F 26.8 °F 29.97 in WNW 4.4 mph 15 mph 28.6% 0.00 in 380 W/m2
12:04 59.7 °F 25.7 °F 29.97 in WNW 5 mph 5 mph 27% 0.00 in 153 W/m2
12:09 59.8 °F 26.7 °F 29.97 in WNW 4.7 mph 14 mph 28% 0.00 in 448 W/m2
12:14 60 °F 26.3 °F 29.97 in WNW 5.4 mph 14 mph 27.5% 0.00 in 438 W/m2
12:19 60 °F 26.1 °F 29.97 in WNW 6.9 mph 15 mph 27.2% 0.00 in 316 W/m2
12:24 59.8 °F 25.9 °F 29.97 in WNW 7 mph 15 mph 27.2% 0.00 in 60 W/m2
12:29 59.6 °F 25.3 °F 29.97 in WNW 6.4 mph 17 mph 26.7% 0.00 in 83 W/m2
12:34 59.5 °F 25.2 °F 29.97 in WNW 6.8 mph 17 mph 26.7% 0.00 in 246 W/m2
12:39 59.6 °F 25.5 °F 29.97 in WNW 4.5 mph 16 mph 26.8% 0.00 in 475 W/m2
12:44 60.1 °F 25.1 °F 29.97 in WNW 4.8 mph 16 mph 26% 0.00 in 475 W/m2
12:49 60.6 °F 26 °F 29.96 in West 4.3 mph 16 mph 26.5% 0.00 in 141 W/m2
12:54 60.8 °F 25.7 °F 29.96 in WNW 7.7 mph 16 mph 26% 0.00 in 62 W/m2
12:59 60.6 °F 24.8 °F 29.96 in West 5 mph 16 mph 25.2% 0.00 in 51 W/m2
13:04 60.7 °F 25.2 °F 29.96 in WSW 3 mph 16 mph 25.6% 0.00 in 313 W/m2
13:09 60.8 °F 25.4 °F 29.96 in WSW 4.1 mph 13 mph 25.6% 0.00 in 288 W/m2
13:14 60.9 °F 24.8 °F 29.96 in West 3.8 mph 16 mph 25% 0.00 in 251 W/m2
13:19 60.9 °F 24.6 °F 29.96 in WNW 5.4 mph 16 mph 24.7% 0.00 in 318 W/m2
13:24 60.6 °F 23.8 °F 29.96 in West 5.3 mph 16 mph 24.2% 0.00 in 348 W/m2
13:29 60.5 °F 23.7 °F 29.96 in WNW 6.2 mph 16 mph 24.1% 0.00 in 345 W/m2
13:34 60.3 °F 23.8 °F 29.96 in West 3.6 mph 16 mph 24.4% 0.00 in 209 W/m2
13:39 60.1 °F 23.9 °F 29.96 in WNW 3 mph 11 mph 24.8% 0.00 in 192 W/m2
13:44 60 °F 24.1 °F 29.96 in West 2.2 mph 11 mph 25% 0.00 in 125 W/m2
13:49 60 °F 25.4 °F 29.96 in West 0.8 mph 11 mph 26.4% 0.00 in 128 W/m2
13:54 60 °F 25.5 °F 29.96 in WSW 1.5 mph 11 mph 26.5% 0.00 in 144 W/m2
13:57 60.1 °F 24.8 °F 29.96 in WSW 1.1 mph 11 mph 25.7% 0.00 in 193 W/m2
14:00 60.2 °F 25.2 °F 29.96 in WSW 2 mph 11 mph 26% 0.00 in 135 W/m2
14:30 59.7 °F 22.9 °F 29.97 in WNW 4 mph 15 mph 24% 0.00 in 122 W/m2
15:00 58.7 °F 23 °F 29.97 in WNW 3 mph 16 mph 25% 0.00 in 36 W/m2
15:30 57.2 °F 21.7 °F 29.98 in West 2 mph 12 mph 25% 0.00 in 26 W/m2
16:04 55.7 °F 22.1 °F 30.00 in West 0.2 mph 12 mph 26.8% 0.00 in 26 W/m2
16:09 55.5 °F 22.1 °F 30.00 in West 0.2 mph 3 mph 27% 0.00 in 9 W/m2
16:14 55.2 °F 21.8 °F 30.00 in West 0.5 mph 4 mph 27% 0.00 in 7 W/m2
16:19 55 °F 21.7 °F 30.00 in Calm   4 mph 27% 0.00 in 5 W/m2
16:24 54.8 °F 21.5 °F 30.00 in West 0.1 mph 4 mph 27% 0.00 in 0 W/m2
16:29 54.5 °F 21.3 °F 30.00 in Calm   4 mph 27% 0.00 in 0 W/m2
16:34 54.3 °F 21.1 °F 30.01 in West 0.5 mph 4 mph 27% 0.00 in 0 W/m2
16:39 54.1 °F 21.2 °F 30.01 in West 0.5 mph 6 mph 27.3% 0.00 in 0 W/m2
16:44 53.9 °F 21.5 °F 30.01 in Calm   6 mph 28% 0.00 in 0 W/m2
16:49 53.7 °F 20.7 °F 30.02 in West 0.4 mph 6 mph 27.2% 0.00 in 0 W/m2
16:54 53.5 °F 21.2 °F 30.02 in Calm   6 mph 28% 0.00 in 0 W/m2
16:59 53.2 °F 21 °F 30.03 in Calm   6 mph 28% 0.00 in 0 W/m2
17:04 53 °F 20.8 °F 30.03 in Calm   6 mph 28% 0.00 in 0 W/m2
17:09 52.8 °F 20.8 °F 30.03 in West 0.3 mph 5 mph 28.2% 0.00 in 0 W/m2
17:14 52.5 °F 21.2 °F 30.03 in West 0.3 mph 5 mph 29% 0.00 in 0 W/m2
17:19 52.3 °F 21.4 °F 30.03 in Calm   5 mph 29.5% 0.00 in 0 W/m2
17:24 52 °F 21.4 °F 30.03 in Calm   5 mph 29.9% 0.00 in 0 W/m2
17:29 51.7 °F 21.3 °F 30.04 in West 0.3 mph 5 mph 30% 0.00 in 0 W/m2
17:34 51.5 °F 21.1 °F 30.04 in Calm   5 mph 30% 0.00 in 0 W/m2
17:39 51.3 °F 20.9 °F 30.04 in West 0.1 mph 3 mph 30% 0.00 in 0 W/m2
17:44 51.1 °F 20.8 °F 30.04 in West 0.5 mph 3 mph 30% 0.00 in 0 W/m2
17:49 51 °F 20.7 °F 30.04 in West 0.2 mph 3 mph 30% 0.00 in 0 W/m2
17:54 50.9 °F 20.6 °F 30.04 in Calm   3 mph 30% 0.00 in 0 W/m2
17:59 50.8 °F 20.6 °F 30.05 in West 0.5 mph 3 mph 30.1% 0.00 in 0 W/m2
18:04 50.6 °F 21.5 °F 30.05 in West 0.6 mph 4 mph 31.5% 0.00 in 0 W/m2
18:09 50.5 °F 21.6 °F 30.06 in West 0.3 mph 4 mph 31.7% 0.00 in 0 W/m2
18:14 50.4 °F 21.7 °F 30.06 in West 0.3 mph 4 mph 32% 0.00 in 0 W/m2
18:19 50.3 °F 21.6 °F 30.06 in West 0.2 mph 4 mph 32% 0.00 in 0 W/m2
18:24 50.2 °F 22 °F 30.07 in Calm   4 mph 32.7% 0.00 in 0 W/m2
18:29 50.1 °F 22.7 °F 30.07 in Calm   4 mph 33.8% 0.00 in 0 W/m2
18:34 49.9 °F 22.6 °F 30.07 in Calm   4 mph 34% 0.00 in 0 W/m2
18:39 49.6 °F 21.8 °F 30.07 in Calm     33% 0.00 in 0 W/m2
18:44 49.5 °F 21.5 °F 30.07 in Calm     32.9% 0.00 in 0 W/m2
18:49 49.5 °F 20.9 °F 30.08 in Calm     32% 0.00 in 0 W/m2
18:54 49.4 °F 21 °F 30.07 in Calm     32.3% 0.00 in 0 W/m2
18:59 49.2 °F 20.7 °F 30.07 in Calm     32% 0.00 in 0 W/m2
19:04 49.2 °F 20.7 °F 30.07 in Calm     32.1% 0.00 in 0 W/m2
19:09 49.1 °F 20.7 °F 30.08 in Calm     32.2% 0.00 in 0 W/m2
19:14 49 °F 20.8 °F 30.08 in Calm     32.5% 0.00 in 0 W/m2
19:19 48.9 °F 20.4 °F 30.07 in Calm     32% 0.00 in 0 W/m2
19:24 48.8 °F 21.1 °F 30.07 in Calm     33.2% 0.00 in 0 W/m2
19:29 48.6 °F 21.9 °F 30.08 in Calm     34.6% 0.00 in 0 W/m2
19:34 48.3 °F 21.8 °F 30.08 in Calm     34.8% 0.00 in 0 W/m2
19:39 47.9 °F 22 °F 30.08 in Calm     35.6% 0.00 in 0 W/m2
19:44 47.5 °F 22.3 °F 30.08 in Calm     36.5% 0.00 in 0 W/m2
19:49 47.2 °F 23.3 °F 30.08 in Calm     38.7% 0.00 in 0 W/m2
19:54 46.7 °F 22.5 °F 30.08 in Calm     38% 0.00 in 0 W/m2
19:59 46.4 °F 21.6 °F 30.08 in Calm     37% 0.00 in 0 W/m2
20:04 46.2 °F 21.4 °F 30.08 in Calm     37% 0.00 in 0 W/m2
20:09 46.2 °F 22.5 °F 30.09 in Calm     38.8% 0.00 in 0 W/m2
20:14 46 °F 23.1 °F 30.09 in Calm   2 mph 40.1% 0.00 in 0 W/m2
20:19 45.7 °F 23.2 °F 30.08 in West 1.2 mph 6 mph 40.8% 0.00 in 0 W/m2
20:24 45.4 °F 24.2 °F 30.09 in West 0.2 mph 6 mph 43.1% 0.00 in 0 W/m2
20:29 45.1 °F 25.3 °F 30.09 in Calm   6 mph 45.4% 0.00 in 0 W/m2
20:34 44.7 °F 23.9 °F 30.09 in West 0.3 mph 6 mph 43.5% 0.00 in 0 W/m2
20:39 44.6 °F 24.1 °F 30.10 in WNW 1.1 mph 6 mph 44% 0.00 in 0 W/m2
20:43 44.6 °F 24.6 °F 30.10 in Calm   6 mph 45% 0.00 in 0 W/m2
20:49 44.7 °F 24.7 °F 30.10 in Calm   6 mph 45% 0.00 in 0 W/m2
20:54 44.7 °F 24.7 °F 30.10 in Calm   6 mph 45% 0.00 in 0 W/m2
20:59 44.7 °F 24.6 °F 30.10 in NNW 1.5 mph 7 mph 44.9% 0.00 in 0 W/m2
21:04 44.7 °F 25.2 °F 30.11 in Calm   7 mph 45.9% 0.00 in 0 W/m2
21:09 44.7 °F 25.3 °F 30.11 in Calm   1 mph 46.2% 0.00 in 0 W/m2
21:14 44.6 °F 25.7 °F 30.12 in NNW 0.1 mph 1 mph 47% 0.00 in 0 W/m2
21:19 44.6 °F 25.6 °F 30.12 in NNW 0.1 mph 2 mph 47% 0.00 in 0 W/m2
21:24 44.5 °F 25.5 °F 30.12 in Calm   2 mph 47% 0.00 in 0 W/m2
21:29 44.4 °F 25.9 °F 30.11 in Calm   2 mph 47.8% 0.00 in 0 W/m2
21:34 44.4 °F 26.2 °F 30.11 in NNW 0.1 mph 2 mph 48.5% 0.00 in 0 W/m2
21:39 44.3 °F 27.9 °F 30.12 in Calm   2 mph 52.1% 0.00 in 0 W/m2
21:44 44.3 °F 28.4 °F 30.12 in NNW 1.1 mph 6 mph 53.3% 0.00 in 0 W/m2
21:49 44.3 °F 27.9 °F 30.12 in NNW 2 mph 9 mph 52.2% 0.00 in 0 W/m2
21:54 44.3 °F 28.6 °F 30.12 in NNW 3.2 mph 9 mph 53.7% 0.00 in 0 W/m2
21:59 44.5 °F 29.4 °F 30.13 in WNW 4.1 mph 14 mph 55.2% 0.00 in 0 W/m2
22:04 44.7 °F 29.7 °F 30.12 in WNW 6 mph 14 mph 55.4% 0.00 in 0 W/m2
22:09 44.8 °F 29.9 °F 30.13 in WNW 5 mph 13 mph 55.6% 0.00 in 0 W/m2
22:14 44.8 °F 29.6 °F 30.13 in NW 5.4 mph 13 mph 54.9% 0.00 in 0 W/m2
22:19 44.9 °F 29.4 °F 30.13 in WNW 4.5 mph 13 mph 54.2% 0.00 in 0 W/m2
22:24 44.9 °F 29.7 °F 30.14 in WNW 5.8 mph 14 mph 55% 0.00 in 0 W/m2
22:29 44.9 °F 29.8 °F 30.14 in WNW 4.2 mph 14 mph 55.1% 0.00 in 0 W/m2
22:34 44.8 °F 29.9 °F 30.14 in NW 5.4 mph 14 mph 55.5% 0.00 in 0 W/m2
22:39 44.7 °F 29.9 °F 30.15 in WNW 3.7 mph 13 mph 55.8% 0.00 in 0 W/m2
22:44 44.6 °F 30.1 °F 30.15 in WNW 1.2 mph 13 mph 56.3% 0.00 in 0 W/m2
22:49 44.5 °F 29.8 °F 30.15 in NW 3.9 mph 16 mph 56% 0.00 in 0 W/m2
22:54 44.2 °F 29.8 °F 30.15 in NW 1.2 mph 16 mph 56.7% 0.00 in 0 W/m2
22:59 44 °F 29.8 °F 30.16 in NW 1.6 mph 16 mph 57% 0.00 in 0 W/m2
23:09 43.5 °F 29.6 °F 30.16 in NW 2.8 mph 8 mph 57.7% 0.00 in 0 W/m2
23:14 43.3 °F 29.5 °F 30.16 in WNW 4.6 mph 11 mph 58% 0.00 in 0 W/m2
23:19 43.2 °F 29.4 °F 30.15 in WNW 2.5 mph 11 mph 58% 0.00 in 0 W/m2
23:24 43 °F 29.3 °F 30.15 in NW 2.4 mph 11 mph 58% 0.00 in 0 W/m2
23:29 42.8 °F 29.2 °F 30.16 in NW 2.3 mph 11 mph 58.3% 0.00 in 0 W/m2
23:34 42.7 °F 29.3 °F 30.17 in WNW 3 mph 11 mph 58.8% 0.00 in 0 W/m2
23:39 42.6 °F 29.3 °F 30.17 in WNW 2.9 mph 10 mph 59% 0.00 in 0 W/m2
23:44 42.4 °F 29.1 °F 30.17 in NW 4.8 mph 11 mph 59% 0.00 in 0 W/m2
23:49 42.4 °F 29.1 °F 30.17 in WNW 4.5 mph 11 mph 59% 0.00 in 0 W/m2
23:53 42.4 °F 29.1 °F 30.17 in WNW 0.5 mph 11 mph 59% 0.00 in 0 W/m2
Hartford County Weather
Compliments of Weather Underground - 4 mb